sensor_id;sensor_type;location;lat;lon;timestamp;pressure;altitude;pressure_sealevel;temperature;humidity
63552;BME280;49698;48.072;7.800;2023-10-19T00:02:49;97739.56;;;10.34;100.00
63552;BME280;49698;48.072;7.800;2023-10-19T00:05:19;97738.75;;;10.34;100.00
63552;BME280;49698;48.072;7.800;2023-10-19T00:07:48;97741.13;;;10.35;100.00
63552;BME280;49698;48.072;7.800;2023-10-19T00:10:16;97725.31;;;10.34;100.00
63552;BME280;49698;48.072;7.800;2023-10-19T00:12:44;97730.38;;;10.35;100.00
63552;BME280;49698;48.072;7.800;2023-10-19T00:15:17;97726.59;;;10.36;100.00
63552;BME280;49698;48.072;7.800;2023-10-19T00:17:51;97722.47;;;10.39;100.00
63552;BME280;49698;48.072;7.800;2023-10-19T00:20:22;97725.94;;;10.39;100.00
63552;BME280;49698;48.072;7.800;2023-10-19T00:23:03;97732.88;;;10.40;100.00
63552;BME280;49698;48.072;7.800;2023-10-19T00:25:32;97743.31;;;10.42;100.00
63552;BME280;49698;48.072;7.800;2023-10-19T00:28:02;97744.56;;;10.44;100.00
63552;BME280;49698;48.072;7.800;2023-10-19T00:30:34;97743.91;;;10.47;100.00
63552;BME280;49698;48.072;7.800;2023-10-19T00:33:04;97734.75;;;10.48;100.00
63552;BME280;49698;48.072;7.800;2023-10-19T00:35:44;97748.66;;;10.50;100.00
63552;BME280;49698;48.072;7.800;2023-10-19T00:38:17;97751.78;;;10.52;100.00
63552;BME280;49698;48.072;7.800;2023-10-19T00:40:54;97749.88;;;10.53;100.00
63552;BME280;49698;48.072;7.800;2023-10-19T00:43:27;97744.53;;;10.53;100.00
63552;BME280;49698;48.072;7.800;2023-10-19T00:45:59;97749.59;;;10.55;100.00
63552;BME280;49698;48.072;7.800;2023-10-19T00:48:35;97749.59;;;10.55;100.00
63552;BME280;49698;48.072;7.800;2023-10-19T00:51:04;97744.22;;;10.55;100.00
63552;BME280;49698;48.072;7.800;2023-10-19T00:53:37;97744.22;;;10.55;100.00
63552;BME280;49698;48.072;7.800;2023-10-19T00:56:08;97735.03;;;10.56;100.00
63552;BME280;49698;48.072;7.800;2023-10-19T00:58:38;97742.31;;;10.55;100.00
63552;BME280;49698;48.072;7.800;2023-10-19T01:01:08;97733.91;;;10.57;100.00
63552;BME280;49698;48.072;7.800;2023-10-19T01:03:38;97731.22;;;10.57;100.00
63552;BME280;49698;48.072;7.800;2023-10-19T01:06:06;97723.16;;;10.57;100.00
63552;BME280;49698;48.072;7.800;2023-10-19T01:08:39;97732.81;;;10.58;100.00
63552;BME280;49698;48.072;7.800;2023-10-19T01:11:31;97727.44;;;10.58;100.00
63552;BME280;49698;48.072;7.800;2023-10-19T01:14:19;97717.78;;;10.57;100.00
63552;BME280;49698;48.072;7.800;2023-10-19T01:16:48;97715.44;;;10.55;100.00
63552;BME280;49698;48.072;7.800;2023-10-19T01:19:18;97712.75;;;10.55;100.00
63552;BME280;49698;48.072;7.800;2023-10-19T01:21:47;97709.28;;;10.55;100.00
63552;BME280;49698;48.072;7.800;2023-10-19T01:24:21;97708.50;;;10.54;100.00
63552;BME280;49698;48.072;7.800;2023-10-19T01:27:00;97709.28;;;10.55;100.00
63552;BME280;49698;48.072;7.800;2023-10-19T01:29:30;97702.00;;;10.55;100.00
63552;BME280;49698;48.072;7.800;2023-10-19T01:31:59;97698.22;;;10.56;100.00
63552;BME280;49698;48.072;7.800;2023-10-19T01:34:34;97692.06;;;10.56;100.00
63552;BME280;49698;48.072;7.800;2023-10-19T01:37:04;97692.06;;;10.56;100.00
63552;BME280;49698;48.072;7.800;2023-10-19T01:39:34;97689.38;;;10.56;100.00
63552;BME280;49698;48.072;7.800;2023-10-19T01:42:08;97691.59;;;10.53;100.00
63552;BME280;49698;48.072;7.800;2023-10-19T01:44:36;97685.75;;;10.51;100.00
63552;BME280;49698;48.072;7.800;2023-10-19T01:47:04;97686.88;;;10.50;100.00
63552;BME280;49698;48.072;7.800;2023-10-19T01:49:33;97681.03;;;10.48;100.00
63552;BME280;49698;48.072;7.800;2023-10-19T01:52:01;97679.13;;;10.49;100.00
63552;BME280;49698;48.072;7.800;2023-10-19T01:54:29;97676.75;;;10.47;100.00
63552;BME280;49698;48.072;7.800;2023-10-19T01:56:59;97674.09;;;10.47;100.00
63552;BME280;49698;48.072;7.800;2023-10-19T01:59:27;97676.31;;;10.45;100.00
63552;BME280;49698;48.072;7.800;2023-10-19T02:01:57;97676.31;;;10.45;100.00
63552;BME280;49698;48.072;7.800;2023-10-19T02:04:24;97676.75;;;10.47;100.00
63552;BME280;49698;48.072;7.800;2023-10-19T02:06:53;97670.28;;;10.48;100.00
63552;BME280;49698;48.072;7.800;2023-10-19T02:09:21;97656.53;;;10.50;100.00
63552;BME280;49698;48.072;7.800;2023-10-19T02:11:52;97655.75;;;10.49;100.00
63552;BME280;49698;48.072;7.800;2023-10-19T02:14:21;97661.13;;;10.49;100.00
63552;BME280;49698;48.072;7.800;2023-10-19T02:16:54;97646.56;;;10.50;100.00
63552;BME280;49698;48.072;7.800;2023-10-19T02:19:25;97646.56;;;10.50;100.00
63552;BME280;49698;48.072;7.800;2023-10-19T02:21:54;97641.19;;;10.50;100.00
63552;BME280;49698;48.072;7.800;2023-10-19T02:24:23;97642.78;;;10.51;100.00
63552;BME280;49698;48.072;7.800;2023-10-19T02:26:53;97653.50;;;10.51;100.00
63552;BME280;49698;48.072;7.800;2023-10-19T02:29:23;97664.25;;;10.51;100.00
63552;BME280;49698;48.072;7.800;2023-10-19T02:31:54;97649.72;;;10.52;100.00
63552;BME280;49698;48.072;7.800;2023-10-19T02:34:23;97643.25;;;10.53;100.00
63552;BME280;49698;48.072;7.800;2023-10-19T02:36:50;97647.50;;;10.55;100.00
63552;BME280;49698;48.072;7.800;2023-10-19T02:39:18;97649.84;;;10.56;100.00
63552;BME280;49698;48.072;7.800;2023-10-19T02:41:48;97642.25;;;10.58;100.00
63552;BME280;49698;48.072;7.800;2023-10-19T02:44:16;97637.03;;;10.62;100.00
63552;BME280;49698;48.072;7.800;2023-10-19T02:46:51;97638.25;;;10.64;100.00
63552;BME280;49698;48.072;7.800;2023-10-19T02:49:21;97634.63;;;10.69;100.00
63552;BME280;49698;48.072;7.800;2023-10-19T02:51:51;97637.41;;;10.72;100.00
63552;BME280;49698;48.072;7.800;2023-10-19T02:54:21;97631.09;;;10.77;100.00
63552;BME280;49698;48.072;7.800;2023-10-19T02:56:50;97633.91;;;10.81;100.00
63552;BME280;49698;48.072;7.800;2023-10-19T02:59:20;97621.03;;;10.86;100.00
63552;BME280;49698;48.072;7.800;2023-10-19T03:01:52;97623.88;;;10.90;100.00
63552;BME280;49698;48.072;7.800;2023-10-19T03:04:21;97606.75;;;10.94;100.00
63552;BME280;49698;48.072;7.800;2023-10-19T03:06:50;97609.56;;;10.98;100.00
63552;BME280;49698;48.072;7.800;2023-10-19T03:09:19;97601.63;;;11.01;100.00
63552;BME280;49698;48.072;7.800;2023-10-19T03:11:56;97612.19;;;11.07;100.00
63552;BME280;49698;48.072;7.800;2023-10-19T03:14:26;97609.63;;;11.10;100.00
63552;BME280;49698;48.072;7.800;2023-10-19T03:16:57;97595.88;;;11.12;100.00
63552;BME280;49698;48.072;7.800;2023-10-19T03:19:24;97596.00;;;11.15;100.00
63552;BME280;49698;48.072;7.800;2023-10-19T03:21:53;97595.31;;;11.18;100.00
63552;BME280;49698;48.072;7.800;2023-10-19T03:24:22;97596.91;;;11.19;100.00
63552;BME280;49698;48.072;7.800;2023-10-19T03:27:03;97591.66;;;11.23;100.00
63552;BME280;49698;48.072;7.800;2023-10-19T03:29:39;97589.41;;;11.25;100.00
63552;BME280;49698;48.072;7.800;2023-10-19T03:32:14;97578.00;;;11.28;100.00
63552;BME280;49698;48.072;7.800;2023-10-19T03:34:44;97577.34;;;11.31;100.00
63552;BME280;49698;48.072;7.800;2023-10-19T03:37:15;97577.91;;;11.37;100.00
63552;BME280;49698;48.072;7.800;2023-10-19T03:39:46;97579.59;;;11.41;100.00
63552;BME280;49698;48.072;7.800;2023-10-19T03:42:15;97568.63;;;11.46;100.00
63552;BME280;49698;48.072;7.800;2023-10-19T03:44:43;97570.75;;;11.53;100.00
63552;BME280;49698;48.072;7.800;2023-10-19T03:47:18;97570.69;;;11.62;100.00
63552;BME280;49698;48.072;7.800;2023-10-19T03:49:47;97565.19;;;11.70;100.00
63552;BME280;49698;48.072;7.800;2023-10-19T03:52:17;97562.38;;;11.79;100.00
63552;BME280;49698;48.072;7.800;2023-10-19T03:54:49;97553.00;;;11.85;100.00
63552;BME280;49698;48.072;7.800;2023-10-19T03:57:19;97559.28;;;11.89;100.00
63552;BME280;49698;48.072;7.800;2023-10-19T03:59:50;97555.13;;;11.92;100.00
63552;BME280;49698;48.072;7.800;2023-10-19T04:02:21;97554.81;;;11.93;100.00
63552;BME280;49698;48.072;7.800;2023-10-19T04:04:51;97551.78;;;11.95;100.00
63552;BME280;49698;48.072;7.800;2023-10-19T04:07:22;97547.16;;;11.95;100.00
63552;BME280;49698;48.072;7.800;2023-10-19T04:09:53;97540.69;;;11.96;100.00
63552;BME280;49698;48.072;7.800;2023-10-19T04:12:27;97544.94;;;11.97;100.00
63552;BME280;49698;48.072;7.800;2023-10-19T04:14:58;97543.38;;;11.96;100.00
63552;BME280;49698;48.072;7.800;2023-10-19T04:17:32;97537.19;;;11.96;100.00
63552;BME280;49698;48.072;7.800;2023-10-19T04:20:03;97541.00;;;11.95;100.00
63552;BME280;49698;48.072;7.800;2023-10-19T04:22:49;97537.53;;;11.94;100.00
63552;BME280;49698;48.072;7.800;2023-10-19T04:25:18;97537.53;;;11.94;100.00
63552;BME280;49698;48.072;7.800;2023-10-19T04:27:47;97540.22;;;11.94;100.00
63552;BME280;49698;48.072;7.800;2023-10-19T04:30:15;97530.59;;;11.93;100.00
63552;BME280;49698;48.072;7.800;2023-10-19T04:32:46;97534.06;;;11.94;100.00
63552;BME280;49698;48.072;7.800;2023-10-19T04:35:14;97527.09;;;11.93;100.00
63552;BME280;49698;48.072;7.800;2023-10-19T04:37:48;97524.72;;;11.91;100.00
63552;BME280;49698;48.072;7.800;2023-10-19T04:40:17;97524.72;;;11.91;100.00
63552;BME280;49698;48.072;7.800;2023-10-19T04:42:46;97516.66;;;11.91;100.00
63552;BME280;49698;48.072;7.800;2023-10-19T04:45:14;97516.22;;;11.89;100.00
63552;BME280;49698;48.072;7.800;2023-10-19T04:47:42;97520.00;;;11.88;100.00
63552;BME280;49698;48.072;7.800;2023-10-19T04:50:12;97514.63;;;11.88;100.00
63552;BME280;49698;48.072;7.800;2023-10-19T04:52:40;97506.91;;;11.87;100.00
63552;BME280;49698;48.072;7.800;2023-10-19T04:55:08;97512.28;;;11.87;100.00
63552;BME280;49698;48.072;7.800;2023-10-19T04:57:38;97508.34;;;11.84;100.00
63552;BME280;49698;48.072;7.800;2023-10-19T05:00:07;97501.25;;;11.80;100.00
63552;BME280;49698;48.072;7.800;2023-10-19T05:02:39;97499.25;;;11.76;100.00
63552;BME280;49698;48.072;7.800;2023-10-19T05:05:08;97499.13;;;11.73;100.00
63552;BME280;49698;48.072;7.800;2023-10-19T05:07:38;97493.31;;;11.71;100.00
63552;BME280;49698;48.072;7.800;2023-10-19T05:10:07;97497.13;;;11.70;100.00
63552;BME280;49698;48.072;7.800;2023-10-19T05:12:35;97484.78;;;11.69;100.00
63552;BME280;49698;48.072;7.800;2023-10-19T05:15:04;97479.84;;;11.71;100.00
63552;BME280;49698;48.072;7.800;2023-10-19T05:17:33;97475.25;;;11.71;100.00
63552;BME280;49698;48.072;7.800;2023-10-19T05:20:01;97474.47;;;11.71;100.00
63552;BME280;49698;48.072;7.800;2023-10-19T05:22:29;97473.34;;;11.72;100.00
63552;BME280;49698;48.072;7.800;2023-10-19T05:25:00;97472.22;;;11.73;100.00
63552;BME280;49698;48.072;7.800;2023-10-19T05:27:30;97470.31;;;11.73;100.00
63552;BME280;49698;48.072;7.800;2023-10-19T05:29:59;97466.50;;;11.74;100.00
63552;BME280;49698;48.072;7.800;2023-10-19T05:32:29;97468.84;;;11.76;100.00
63552;BME280;49698;48.072;7.800;2023-10-19T05:34:58;97463.47;;;11.76;100.00
63552;BME280;49698;48.072;7.800;2023-10-19T05:37:31;97465.72;;;11.74;100.00
63552;BME280;49698;48.072;7.800;2023-10-19T05:40:00;97452.94;;;11.71;100.00
63552;BME280;49698;48.072;7.800;2023-10-19T05:42:31;97453.59;;;11.68;100.00
63552;BME280;49698;48.072;7.800;2023-10-19T05:45:01;97466.28;;;11.67;100.00
63552;BME280;49698;48.072;7.800;2023-10-19T05:47:32;97467.72;;;11.65;100.00
63552;BME280;49698;48.072;7.800;2023-10-19T05:50:00;97461.25;;;11.66;100.00
63552;BME280;49698;48.072;7.800;2023-10-19T05:52:28;97466.28;;;11.67;100.00
63552;BME280;49698;48.072;7.800;2023-10-19T05:54:57;97473.22;;;11.68;100.00
63552;BME280;49698;48.072;7.800;2023-10-19T05:57:28;97470.22;;;11.70;100.00
63552;BME280;49698;48.072;7.800;2023-10-19T05:59:55;97469.09;;;11.71;100.00
63552;BME280;49698;48.072;7.800;2023-10-19T06:02:23;97462.56;;;11.72;100.00
63552;BME280;49698;48.072;7.800;2023-10-19T06:04:58;97474.91;;;11.73;100.00
63552;BME280;49698;48.072;7.800;2023-10-19T06:07:26;97465.72;;;11.74;100.00
63552;BME280;49698;48.072;7.800;2023-10-19T06:09:54;97471.88;;;11.74;100.00
63552;BME280;49698;48.072;7.800;2023-10-19T06:12:22;97471.09;;;11.74;100.00
63552;BME280;49698;48.072;7.800;2023-10-19T06:14:51;97463.69;;;11.71;100.00
63552;BME280;49698;48.072;7.800;2023-10-19T06:17:19;97460.22;;;11.70;100.00
63552;BME280;49698;48.072;7.800;2023-10-19T06:19:49;97467.06;;;11.68;100.00
63552;BME280;49698;48.072;7.800;2023-10-19T06:22:17;97463.59;;;11.67;100.00
63552;BME280;49698;48.072;7.800;2023-10-19T06:24:45;97454.72;;;11.67;100.00
63552;BME280;49698;48.072;7.800;2023-10-19T06:27:13;97456.28;;;11.68;100.00
63552;BME280;49698;48.072;7.800;2023-10-19T06:29:41;97464.38;;;11.68;100.00
63552;BME280;49698;48.072;7.800;2023-10-19T06:32:12;97462.47;;;11.68;100.00
63552;BME280;49698;48.072;7.800;2023-10-19T06:34:41;97458.66;;;11.69;100.00
63552;BME280;49698;48.072;7.800;2023-10-19T06:37:09;97451.03;;;11.71;100.00
63552;BME280;49698;48.072;7.800;2023-10-19T06:39:37;97447.22;;;11.72;100.00
63552;BME280;49698;48.072;7.800;2023-10-19T06:42:08;97444.19;;;11.74;100.00
63552;BME280;49698;48.072;7.800;2023-10-19T06:44:41;97446.53;;;11.75;100.00
63552;BME280;49698;48.072;7.800;2023-10-19T06:47:11;97462.38;;;11.77;100.00
63552;BME280;49698;48.072;7.800;2023-10-19T06:49:40;97458.09;;;11.76;100.00
63552;BME280;49698;48.072;7.800;2023-10-19T06:52:08;97462.00;;;11.79;100.00
63552;BME280;49698;48.072;7.800;2023-10-19T06:54:38;97459.44;;;11.82;100.00
63552;BME280;49698;48.072;7.800;2023-10-19T06:57:06;97459.91;;;11.84;100.00
63552;BME280;49698;48.072;7.800;2023-10-19T06:59:36;97461.91;;;11.87;100.00
63552;BME280;49698;48.072;7.800;2023-10-19T07:02:04;97456.22;;;11.89;100.00
63552;BME280;49698;48.072;7.800;2023-10-19T07:04:35;97462.81;;;11.91;100.00
63552;BME280;49698;48.072;7.800;2023-10-19T07:07:04;97458.66;;;11.94;100.00
63552;BME280;49698;48.072;7.800;2023-10-19T07:09:32;97460.34;;;11.98;100.00
63552;BME280;49698;48.072;7.800;2023-10-19T07:12:01;97470.44;;;12.02;100.00
63552;BME280;49698;48.072;7.800;2023-10-19T07:14:32;97464.03;;;12.06;100.00
63552;BME280;49698;48.072;7.800;2023-10-19T07:17:00;97464.13;;;12.10;100.00
63552;BME280;49698;48.072;7.800;2023-10-19T07:19:28;97462.34;;;12.14;100.00
63552;BME280;49698;48.072;7.800;2023-10-19T07:21:57;97455.91;;;12.18;100.00
63552;BME280;49698;48.072;7.800;2023-10-19T07:24:25;97465.34;;;12.24;100.00
63552;BME280;49698;48.072;7.800;2023-10-19T07:26:53;97460.38;;;12.27;100.00
63552;BME280;49698;48.072;7.800;2023-10-19T07:29:31;97459.03;;;12.33;100.00
63552;BME280;49698;48.072;7.800;2023-10-19T07:32:00;97461.16;;;12.39;100.00
63552;BME280;49698;48.072;7.800;2023-10-19T07:34:31;97464.72;;;12.43;100.00
63552;BME280;49698;48.072;7.800;2023-10-19T07:37:01;97461.00;;;12.48;100.00
63552;BME280;49698;48.072;7.800;2023-10-19T07:39:30;97465.38;;;12.53;100.00
63552;BME280;49698;48.072;7.800;2023-10-19T07:42:00;97465.88;;;12.58;100.00
63552;BME280;49698;48.072;7.800;2023-10-19T07:44:32;97468.00;;;12.65;100.00
63552;BME280;49698;48.072;7.800;2023-10-19T07:47:00;97468.22;;;12.72;100.00
63552;BME280;49698;48.072;7.800;2023-10-19T07:49:27;97465.72;;;12.79;100.00
63552;BME280;49698;48.072;7.800;2023-10-19T07:51:55;97460.50;;;12.86;100.00
63552;BME280;49698;48.072;7.800;2023-10-19T07:54:25;97464.50;;;12.92;100.00
63552;BME280;49698;48.072;7.800;2023-10-19T07:56:54;97465.84;;;12.98;100.00
63552;BME280;49698;48.072;7.800;2023-10-19T07:59:24;97464.00;;;13.03;100.00
63552;BME280;49698;48.072;7.800;2023-10-19T08:01:52;97462.97;;;13.07;100.00
63552;BME280;49698;48.072;7.800;2023-10-19T08:04:20;97472.72;;;13.12;100.00
63552;BME280;49698;48.072;7.800;2023-10-19T08:06:48;97465.50;;;13.16;100.00
63552;BME280;49698;48.072;7.800;2023-10-19T08:09:16;97471.34;;;13.18;100.00
63552;BME280;49698;48.072;7.800;2023-10-19T08:11:51;97460.19;;;13.19;100.00
63552;BME280;49698;48.072;7.800;2023-10-19T08:14:22;97462.13;;;13.19;100.00
63552;BME280;49698;48.072;7.800;2023-10-19T08:16:51;97467.19;;;13.20;100.00
63552;BME280;49698;48.072;7.800;2023-10-19T08:19:19;97462.91;;;13.19;100.00
63552;BME280;49698;48.072;7.800;2023-10-19T08:21:48;97470.22;;;13.19;100.00
63552;BME280;49698;48.072;7.800;2023-10-19T08:24:16;97462.13;;;13.19;100.00
63552;BME280;49698;48.072;7.800;2023-10-19T08:26:45;97448.63;;;13.19;100.00
63552;BME280;49698;48.072;7.800;2023-10-19T08:29:17;97468.66;;;13.18;100.00
63552;BME280;49698;48.072;7.800;2023-10-19T08:34:27;97457.41;;;13.16;100.00
63552;BME280;49698;48.072;7.800;2023-10-19T08:36:56;97450.44;;;13.15;100.00
63552;BME280;49698;48.072;7.800;2023-10-19T08:39:24;97453.50;;;13.13;100.00
63552;BME280;49698;48.072;7.800;2023-10-19T08:41:52;97456.97;;;13.14;100.00
63552;BME280;49698;48.072;7.800;2023-10-19T08:46:50;97454.56;;;13.09;100.00
63552;BME280;49698;48.072;7.800;2023-10-19T08:49:18;97469.16;;;13.08;100.00
63552;BME280;49698;48.072;7.800;2023-10-19T08:51:51;97477.59;;;13.06;100.00
63552;BME280;49698;48.072;7.800;2023-10-19T08:54:20;97464.78;;;13.03;100.00
63552;BME280;49698;48.072;7.800;2023-10-19T08:56:52;97477.50;;;13.03;100.00
63552;BME280;49698;48.072;7.800;2023-10-19T08:59:22;97470.19;;;13.03;100.00
63552;BME280;49698;48.072;7.800;2023-10-19T09:01:51;97465.56;;;13.04;100.00
63552;BME280;49698;48.072;7.800;2023-10-19T09:04:19;97463.31;;;13.06;100.00
63552;BME280;49698;48.072;7.800;2023-10-19T09:06:47;97461.06;;;13.08;100.00
63552;BME280;49698;48.072;7.800;2023-10-19T09:09:16;97450.25;;;13.08;100.00
63552;BME280;49698;48.072;7.800;2023-10-19T09:11:46;97444.88;;;13.08;100.00
63552;BME280;49698;48.072;7.800;2023-10-19T09:14:15;97451.13;;;13.12;100.00
63552;BME280;49698;48.072;7.800;2023-10-19T09:16:55;97455.44;;;13.13;100.00
63552;BME280;49698;48.072;7.800;2023-10-19T09:19:38;97448.53;;;13.15;100.00
63552;BME280;49698;48.072;7.800;2023-10-19T09:22:07;97437.41;;;13.17;100.00
63552;BME280;49698;48.072;7.800;2023-10-19T09:24:43;97435.13;;;13.19;100.00
63552;BME280;49698;48.072;7.800;2023-10-19T09:27:12;97438.97;;;13.18;100.00
63552;BME280;49698;48.072;7.800;2023-10-19T09:29:41;97436.69;;;13.20;100.00
63552;BME280;49698;48.072;7.800;2023-10-19T09:32:10;97440.53;;;13.19;100.00
63552;BME280;49698;48.072;7.800;2023-10-19T09:34:40;97432.09;;;13.20;100.00
63552;BME280;49698;48.072;7.800;2023-10-19T09:37:10;97428.28;;;13.21;100.00
63552;BME280;49698;48.072;7.800;2023-10-19T09:39:39;97428.28;;;13.21;100.00
63552;BME280;49698;48.072;7.800;2023-10-19T09:42:10;97425.25;;;13.23;100.00
63552;BME280;49698;48.072;7.800;2023-10-19T09:44:45;97410.63;;;13.24;100.00
63552;BME280;49698;48.072;7.800;2023-10-19T09:47:26;97369.03;;;13.25;100.00
63552;BME280;49698;48.072;7.800;2023-10-19T09:49:58;97351.72;;;13.26;100.00
63552;BME280;49698;48.072;7.800;2023-10-19T09:52:27;97352.16;;;13.28;100.00
63552;BME280;49698;48.072;7.800;2023-10-19T09:55:03;97368.75;;;13.30;100.00
63552;BME280;49698;48.072;7.800;2023-10-19T09:57:36;97353.03;;;13.32;100.00
63552;BME280;49698;48.072;7.800;2023-10-19T10:00:05;97362.41;;;13.38;100.00
63552;BME280;49698;48.072;7.800;2023-10-19T10:02:43;97360.22;;;13.44;100.00
63552;BME280;49698;48.072;7.800;2023-10-19T10:05:47;97359.25;;;13.52;100.00
63552;BME280;49698;48.072;7.800;2023-10-19T10:08:31;97352.09;;;13.60;100.00
63552;BME280;49698;48.072;7.800;2023-10-19T10:11:14;97350.75;;;13.69;100.00
63552;BME280;49698;48.072;7.800;2023-10-19T10:13:43;97351.34;;;13.79;100.00
63552;BME280;49698;48.072;7.800;2023-10-19T10:16:13;97348.00;;;13.85;100.00
63552;BME280;49698;48.072;7.800;2023-10-19T10:18:46;97350.84;;;13.92;100.00
63552;BME280;49698;48.072;7.800;2023-10-19T10:21:15;97349.00;;;13.97;100.00
63552;BME280;49698;48.072;7.800;2023-10-19T10:23:44;97346.44;;;14.04;100.00
63552;BME280;49698;48.072;7.800;2023-10-19T10:26:14;97338.50;;;14.11;100.00
63552;BME280;49698;48.072;7.800;2023-10-19T10:28:46;97344.03;;;14.18;100.00
63552;BME280;49698;48.072;7.800;2023-10-19T10:31:19;97338.78;;;14.25;100.00
63552;BME280;49698;48.072;7.800;2023-10-19T10:33:51;97341.59;;;14.32;100.00
63552;BME280;49698;48.072;7.800;2023-10-19T10:36:21;97340.59;;;14.40;100.00
63552;BME280;49698;48.072;7.800;2023-10-19T10:38:50;97326.06;;;14.49;100.00
63552;BME280;49698;48.072;7.800;2023-10-19T10:41:22;97332.50;;;14.60;100.00
63552;BME280;49698;48.072;7.800;2023-10-19T10:43:54;97330.31;;;14.69;100.00
63552;BME280;49698;48.072;7.800;2023-10-19T10:46:23;97314.22;;;14.76;100.00
63552;BME280;49698;48.072;7.800;2023-10-19T10:48:53;97319.38;;;14.85;100.00
63552;BME280;49698;48.072;7.800;2023-10-19T10:51:22;97312.94;;;14.93;100.00
63552;BME280;49698;48.072;7.800;2023-10-19T10:53:49;97312.28;;;15.00;100.00
63552;BME280;49698;48.072;7.800;2023-10-19T10:56:19;97307.00;;;15.07;100.00
63552;BME280;49698;48.072;7.800;2023-10-19T10:58:47;97309.75;;;15.10;100.00
63552;BME280;49698;48.072;7.800;2023-10-19T11:01:27;97313.28;;;15.14;100.00
63552;BME280;49698;48.072;7.800;2023-10-19T11:04:06;97299.00;;;15.17;100.00
63552;BME280;49698;48.072;7.800;2023-10-19T11:06:45;97297.16;;;15.22;100.00
63552;BME280;49698;48.072;7.800;2023-10-19T11:09:13;97290.22;;;15.24;100.00
63552;BME280;49698;48.072;7.800;2023-10-19T11:11:45;97297.25;;;15.29;100.00
63552;BME280;49698;48.072;7.800;2023-10-19T11:16:46;97293.50;;;15.37;100.00
63552;BME280;49698;48.072;7.800;2023-10-19T11:19:14;97288.13;;;15.40;100.00
63552;BME280;49698;48.072;7.800;2023-10-19T11:21:53;97290.53;;;15.46;100.00
63552;BME280;49698;48.072;7.800;2023-10-19T11:24:26;97301.81;;;15.51;100.00
63552;BME280;49698;48.072;7.800;2023-10-19T11:26:56;97315.84;;;15.57;100.00
63552;BME280;49698;48.072;7.800;2023-10-19T11:29:24;97312.81;;;15.62;100.00
63552;BME280;49698;48.072;7.800;2023-10-19T11:32:03;97307.84;;;15.68;100.00
63552;BME280;49698;48.072;7.800;2023-10-19T11:34:33;97316.78;;;15.68;100.00
63552;BME280;49698;48.072;7.800;2023-10-19T11:37:01;97316.41;;;15.70;100.00
63552;BME280;49698;48.072;7.800;2023-10-19T11:39:31;97323.34;;;15.67;100.00
63552;BME280;49698;48.072;7.800;2023-10-19T11:42:00;97320.53;;;15.63;100.00
63552;BME280;49698;48.072;7.800;2023-10-19T11:44:28;97320.50;;;15.60;100.00
63552;BME280;49698;48.072;7.800;2023-10-19T11:46:56;97342.91;;;15.57;100.00
63552;BME280;49698;48.072;7.800;2023-10-19T11:49:25;97357.53;;;15.52;100.00
63552;BME280;49698;48.072;7.800;2023-10-19T11:51:54;97360.19;;;15.49;100.00
63552;BME280;49698;48.072;7.800;2023-10-19T11:54:22;97353.59;;;15.46;100.00
63552;BME280;49698;48.072;7.800;2023-10-19T11:56:50;97354.38;;;15.47;100.00
63552;BME280;49698;48.072;7.800;2023-10-19T11:59:20;97354.75;;;15.45;100.00
63552;BME280;49698;48.072;7.800;2023-10-19T12:01:48;97350.09;;;15.46;100.00
63552;BME280;49698;48.072;7.800;2023-10-19T12:04:18;97344.69;;;15.46;100.00
63552;BME280;49698;48.072;7.800;2023-10-19T12:06:54;97345.09;;;15.48;100.00
63552;BME280;49698;48.072;7.800;2023-10-19T12:09:23;97333.91;;;15.49;100.00
63552;BME280;49698;48.072;7.800;2023-10-19T12:11:52;97330.81;;;15.51;100.00
63552;BME280;49698;48.072;7.800;2023-10-19T12:14:46;97330.88;;;15.54;100.00
63552;BME280;49698;48.072;7.800;2023-10-19T12:17:14;97324.75;;;15.57;100.00
63552;BME280;49698;48.072;7.800;2023-10-19T12:22:53;97312.38;;;15.60;100.00
63552;BME280;49698;48.072;7.800;2023-10-19T12:25:22;97303.13;;;15.61;100.00
63552;BME280;49698;48.072;7.800;2023-10-19T12:28:05;97295.41;;;15.63;100.00
63552;BME280;49698;48.072;7.800;2023-10-19T12:30:42;97286.94;;;15.64;100.00
63552;BME280;49698;48.072;7.800;2023-10-19T12:33:11;97292.41;;;15.68;100.00
63552;BME280;49698;48.072;7.800;2023-10-19T12:35:40;97287.41;;;15.70;100.00
63552;BME280;49698;48.072;7.800;2023-10-19T12:38:19;97274.69;;;15.74;100.00
63552;BME280;49698;48.072;7.800;2023-10-19T12:40:48;97270.47;;;15.77;100.00
63552;BME280;49698;48.072;7.800;2023-10-19T12:43:17;97258.09;;;15.79;100.00
63552;BME280;49698;48.072;7.800;2023-10-19T12:45:47;97263.94;;;15.81;100.00
63552;BME280;49698;48.072;7.800;2023-10-19T12:48:21;97260.06;;;15.82;100.00
63552;BME280;49698;48.072;7.800;2023-10-19T12:50:52;97261.63;;;15.83;100.00
63552;BME280;49698;48.072;7.800;2023-10-19T12:53:21;97244.25;;;15.84;100.00
63552;BME280;49698;48.072;7.800;2023-10-19T12:58:27;97248.94;;;15.87;100.00
63552;BME280;49698;48.072;7.800;2023-10-19T13:00:56;97248.53;;;15.89;100.00
63552;BME280;49698;48.072;7.800;2023-10-19T13:03:26;97242.34;;;15.88;100.00
63552;BME280;49698;48.072;7.800;2023-10-19T13:05:58;97242.34;;;15.88;100.00
63552;BME280;49698;48.072;7.800;2023-10-19T13:08:30;97242.34;;;15.88;100.00
63552;BME280;49698;48.072;7.800;2023-10-19T13:10:58;97230.75;;;15.88;100.00
63552;BME280;49698;48.072;7.800;2023-10-19T13:13:32;97235.78;;;15.89;100.00
63552;BME280;49698;48.072;7.800;2023-10-19T13:16:05;97224.56;;;15.91;100.00
63552;BME280;49698;48.072;7.800;2023-10-19T13:18:33;97225.38;;;15.92;100.00
63552;BME280;49698;48.072;7.800;2023-10-19T13:21:02;97214.53;;;15.92;100.00
63552;BME280;49698;48.072;7.800;2023-10-19T13:23:32;97216.06;;;15.93;100.00